CDT,Max TemperatureF,Mean TemperatureF,Min TemperatureF,Max Dew PointF,MeanDew PointF,Min DewpointF,Max Humidity, Mean Humidity, Min Humidity, Max Sea Level PressureIn, Mean Sea Level PressureIn, Min Sea Level PressureIn, Max VisibilityMiles, Mean VisibilityMiles, Min VisibilityMiles, Max Wind SpeedMPH, Mean Wind SpeedMPH, Max Gust SpeedMPH,PrecipitationIn, CloudCover, Events, WindDirDegrees
2012-10-1,68,64,60,63,60,58,100,89,78,29.79,29.67,29.57,10,8,4,16,7,24,0.01,8,Rain,300
2012-10-2,80,69,57,62,58,52,100,70,39,29.98,29.88,29.79,10,10,7,9,3,12,0.00,1,,282
2012-10-3,83,71,59,66,62,58,97,74,51,30.12,30.04,29.98,10,9,7,15,4,38,0.00,3,Thunderstorm,117
2012-10-4,86,75,63,70,65,62,100,74,48,30.22,30.16,30.12,10,9,4,21,3,25,0.00,0,,78
2012-10-5,87,76,64,70,65,61,100,70,40,30.16,30.10,30.00,10,6,0,8,1,22,0.00,2,Fog,52
2012-10-6,83,71,58,69,64,55,100,81,62,30.06,30.02,29.97,10,9,5,12,4,17,0.00,1,,344
2012-10-7,66,60,53,55,51,50,93,78,63,30.16,30.11,30.07,10,10,10,14,5,20,0.00,5,,2
2012-10-8,70,61,51,52,49,46,89,68,47,30.20,30.13,30.09,10,10,10,13,5,17,0.00,2,,14
2012-10-9,77,63,48,58,52,47,100,73,46,30.17,30.09,30.01,10,10,9,8,2,25,0.00,0,,65
2012-10-10,85,71,57,67,62,56,97,74,51,30.17,30.12,30.07,10,9,4,10,2,13,0.00,2,,43
2012-10-11,86,74,62,66,64,62,100,74,48,30.23,30.18,30.15,10,9,5,12,3,20,0.00,1,,92
2012-10-12,85,73,60,67,63,60,100,76,51,30.26,30.20,30.17,10,6,0,12,3,17,0.00,3,Fog,81
2012-10-13,86,74,62,70,65,62,100,76,51,30.22,30.16,30.07,10,6,0,16,6,24,0.00,2,Fog,127
2012-10-14,86,78,70,72,70,66,100,78,55,30.14,30.05,29.99,10,8,3,15,7,28,0.00,3,,182
2012-10-15,82,70,57,72,62,54,100,71,42,30.05,29.99,29.94,10,9,2,13,3,18,0.26,2,Rain,347
2012-10-16,79,67,55,60,55,52,93,67,40,29.99,29.92,29.85,10,10,10,15,6,20,0.00,0,,89
2012-10-17,85,73,60,72,65,59,97,78,58,29.85,29.79,29.71,10,10,10,21,8,24,0.00,3,,174
2012-10-18,81,69,57,73,59,38,100,61,21,29.94,29.82,29.73,10,9,2,17,6,23,0.13,3,Rain,357
2012-10-19,79,64,48,51,44,33,96,58,19,29.98,29.93,29.88,10,10,10,20,4,24,0.00,0,,280
2012-10-20,82,64,46,54,46,32,93,56,19,30.02,29.97,29.93,10,10,10,7,1,20,0.00,0,,234
2012-10-21,84,68,51,62,55,50,100,66,32,30.10,30.04,29.98,10,10,8,12,4,15,0.00,0,,113
2012-10-22,83,69,55,66,59,54,100,72,43,30.13,30.07,30.03,10,7,1,14,6,20,0.00,0,,88
2012-10-23,84,73,62,68,64,62,100,76,51,30.09,30.05,29.99,10,4,0,10,5,16,0.00,2,Fog,84
2012-10-24,85,75,64,68,65,62,100,74,48,30.09,30.03,29.97,10,4,0,12,6,17,0.00,2,Fog,79
2012-10-25,85,74,62,68,64,61,100,74,47,30.02,29.96,29.92,10,4,0,10,3,15,0.00,2,Fog,77
2012-10-26,84,68,51,70,62,47,100,79,58,30.08,29.98,29.93,10,6,0,15,5,23,T,4,Fog,339
2012-10-27,61,53,45,46,43,37,86,70,53,30.10,30.06,30.00,10,10,10,15,7,22,0.00,4,,341
2012-10-28,65,53,40,38,36,33,85,58,31,30.18,30.11,30.07,10,10,10,15,5,21,0.00,0,,327
2012-10-29,64,52,40,35,33,29,79,53,27,30.24,30.17,30.11,10,10,10,16,5,23,0.00,0,,341
2012-10-30,69,53,36,44,37,31,93,59,24,30.13,30.08,30.01,10,10,10,13,2,25,0.00,0,,285
2012-10-31,79,61,43,59,51,42,100,71,42,30.07,30.01,29.95,10,10,10,16,5,28,0.00,1,,245